Time;durP1;ratioP1;P1;durP2;ratioP2;P2;SDS_P1;SDS_P2;PMS_P1;PMS_P2;Temp;Humidity;BMP_temperature;BMP_pressure;BME280_temperature;BME280_humidity;BME280_pressure;Samples;Min_cycle;Max_cycle;Signal;HPM_P1;HPM_P2
2023/08/30 00:01:05;;;;;;;0.47;0.40;;;;;;;;;;5008390;28;20536;-79
2023/08/30 00:03:31;;;;;;;0.28;0.28;;;;;;;;;;5007061;28;20095;-78
2023/08/30 00:06:02;;;;;;;0.50;0.50;;;;;;;;;;5006637;28;20375;-79
2023/08/30 00:08:28;;;;;;;0.32;0.20;;;;;;;;;;5003125;28;20065;-78
2023/08/30 00:10:56;;;;;;;0.40;0.40;;;;;;;;;;5004688;28;20390;-78
2023/08/30 00:13:23;;;;;;;0.35;0.35;;;;;;;;;;5008331;28;20383;-79
2023/08/30 00:15:49;;;;;;;0.40;0.40;;;;;;;;;;5006965;28;20042;-79
2023/08/30 00:18:15;;;;;;;0.43;0.43;;;;;;;;;;5006833;28;20534;-79
2023/08/30 00:20:41;;;;;;;1.45;0.52;;;;;;;;;;5006093;28;20033;-78
2023/08/30 00:23:07;;;;;;;0.32;0.32;;;;;;;;;;5008162;28;20026;-79
2023/08/30 00:25:33;;;;;;;0.50;0.50;;;;;;;;;;5008008;28;20076;-79
2023/08/30 00:27:59;;;;;;;1.23;0.40;;;;;;;;;;5002841;28;20034;-78
2023/08/30 00:30:25;;;;;;;0.40;0.40;;;;;;;;;;5004100;28;20041;-78
2023/08/30 00:32:51;;;;;;;0.38;0.38;;;;;;;;;;5004112;28;20037;-79
2023/08/30 00:35:17;;;;;;;0.40;0.40;;;;;;;;;;5010869;28;20030;-79
2023/08/30 00:37:42;;;;;;;0.68;0.60;;;;;;;;;;5012807;28;20029;-79
2023/08/30 00:40:09;;;;;;;0.40;0.40;;;;;;;;;;5006013;28;20364;-79
2023/08/30 00:42:34;;;;;;;0.40;0.35;;;;;;;;;;5008359;28;20026;-79
2023/08/30 00:45:00;;;;;;;0.70;0.38;;;;;;;;;;5008528;28;20029;-78
2023/08/30 00:47:26;;;;;;;0.52;0.52;;;;;;;;;;5006202;28;20117;-78
2023/08/30 00:49:53;;;;;;;2.28;0.43;;;;;;;;;;5008311;28;20109;-79
2023/08/30 00:52:19;;;;;;;0.30;0.30;;;;;;;;;;5011310;28;20641;-79
2023/08/30 00:54:45;;;;;;;0.28;0.28;;;;;;;;;;5009715;28;20033;-79
2023/08/30 00:57:16;;;;;;;0.60;0.60;;;;;;;;;;5008381;28;20127;-79
2023/08/30 00:59:42;;;;;;;1.20;0.68;;;;;;;;;;5004478;28;20064;-79
2023/08/30 01:02:09;;;;;;;0.43;0.43;;;;;;;;;;5007147;28;20081;-78
2023/08/30 01:04:35;;;;;;;0.80;0.47;;;;;;;;;;5007957;28;20064;-78
2023/08/30 01:07:01;;;;;;;0.30;0.30;;;;;;;;;;5007277;28;20108;-79
2023/08/30 01:09:27;;;;;;;0.43;0.43;;;;;;;;;;5008529;28;20500;-79
2023/08/30 01:12:10;;;;;;;0.50;0.50;;;;;;;;;;5004362;28;20883;-79
2023/08/30 01:14:58;;;;;;;0.30;0.30;;;;;;;;;;5000470;28;20438;-79
2023/08/30 01:17:25;;;;;;;0.68;0.35;;;;;;;;;;5007724;28;20053;-79
2023/08/30 01:19:55;;;;;;;0.88;0.40;;;;;;;;;;5008466;28;20542;-78
2023/08/30 01:22:40;;;;;;;0.30;0.30;;;;;;;;;;5025466;28;20037;-79
2023/08/30 01:25:18;;;;;;;0.43;0.43;;;;;;;;;;5004908;28;20034;-79
2023/08/30 01:27:46;;;;;;;1.10;0.52;;;;;;;;;;5001937;28;20037;-79
2023/08/30 01:30:12;;;;;;;0.22;0.22;;;;;;;;;;5009042;28;20505;-79
2023/08/30 01:32:39;;;;;;;0.77;0.65;;;;;;;;;;5008735;28;20029;-79
2023/08/30 01:35:06;;;;;;;0.40;0.40;;;;;;;;;;5011058;28;20133;-78
2023/08/30 01:37:32;;;;;;;0.68;0.60;;;;;;;;;;5010002;28;20113;-79
2023/08/30 01:39:59;;;;;;;0.50;0.50;;;;;;;;;;5004639;28;20029;-79
2023/08/30 01:42:26;;;;;;;0.40;0.40;;;;;;;;;;5009568;28;20034;-79
2023/08/30 01:44:54;;;;;;;0.60;0.60;;;;;;;;;;5008858;28;20010;-79
2023/08/30 01:47:24;;;;;;;0.35;0.30;;;;;;;;;;4998503;28;20036;-79
2023/08/30 01:49:50;;;;;;;0.50;0.40;;;;;;;;;;5008411;28;20429;-79
2023/08/30 01:52:17;;;;;;;1.75;0.40;;;;;;;;;;4999387;28;20224;-78
2023/08/30 01:54:43;;;;;;;1.05;0.60;;;;;;;;;;5007674;28;20087;-78
2023/08/30 01:57:09;;;;;;;0.35;0.35;;;;;;;;;;5004419;28;20054;-78
2023/08/30 01:59:35;;;;;;;0.52;0.50;;;;;;;;;;5001354;28;20065;-79
2023/08/30 02:02:03;;;;;;;0.52;0.45;;;;;;;;;;5003656;28;20077;-79
2023/08/30 02:04:31;;;;;;;0.63;0.40;;;;;;;;;;5006570;28;20053;-79
2023/08/30 02:07:14;;;;;;;0.40;0.40;;;;;;;;;;5010826;28;20031;-80
2023/08/30 02:09:47;;;;;;;0.40;0.40;;;;;;;;;;5008325;28;20447;-79
2023/08/30 02:12:14;;;;;;;0.88;0.60;;;;;;;;;;5005565;28;20018;-79
2023/08/30 02:14:42;;;;;;;0.68;0.50;;;;;;;;;;5004690;28;20044;-79
2023/08/30 02:17:08;;;;;;;0.60;0.60;;;;;;;;;;5002588;28;20041;-79
2023/08/30 02:19:34;;;;;;;0.98;0.50;;;;;;;;;;5004739;28;20036;-79
2023/08/30 02:22:00;;;;;;;0.38;0.38;;;;;;;;;;5010128;28;20030;-79
2023/08/30 02:24:26;;;;;;;0.43;0.40;;;;;;;;;;5006405;28;20044;-79
2023/08/30 02:26:52;;;;;;;0.30;0.30;;;;;;;;;;5009228;28;20117;-79
2023/08/30 02:29:18;;;;;;;0.40;0.40;;;;;;;;;;5009505;28;20156;-79
2023/08/30 02:31:44;;;;;;;0.60;0.60;;;;;;;;;;5008314;28;20038;-79
2023/08/30 02:34:10;;;;;;;0.40;0.40;;;;;;;;;;5004227;28;20014;-79
2023/08/30 02:36:36;;;;;;;0.40;0.40;;;;;;;;;;5001988;28;20030;-79
2023/08/30 02:39:03;;;;;;;0.52;0.47;;;;;;;;;;5002410;28;20033;-79
2023/08/30 02:41:29;;;;;;;0.30;0.30;;;;;;;;;;5008338;28;20080;-79
2023/08/30 02:43:55;;;;;;;0.52;0.30;;;;;;;;;;5001532;28;20038;-79
2023/08/30 02:46:21;;;;;;;0.45;0.45;;;;;;;;;;5006838;28;20069;-79
2023/08/30 02:48:47;;;;;;;0.40;0.40;;;;;;;;;;5008699;28;20450;-79
2023/08/30 02:51:13;;;;;;;0.40;0.40;;;;;;;;;;5007872;28;20223;-79
2023/08/30 02:53:39;;;;;;;2.20;0.50;;;;;;;;;;5010217;28;20099;-79
2023/08/30 02:56:05;;;;;;;0.30;0.30;;;;;;;;;;5008493;28;20026;-79
2023/08/30 02:58:31;;;;;;;0.52;0.40;;;;;;;;;;4998669;28;20033;-79
2023/08/30 03:00:57;;;;;;;0.30;0.30;;;;;;;;;;5004830;28;20046;-79
2023/08/30 03:03:22;;;;;;;0.40;0.40;;;;;;;;;;5005719;28;20402;-79
2023/08/30 03:05:48;;;;;;;0.77;0.50;;;;;;;;;;5005041;28;20037;-78
2023/08/30 03:08:17;;;;;;;0.80;0.40;;;;;;;;;;5006955;28;20022;-78
2023/08/30 03:10:44;;;;;;;0.30;0.30;;;;;;;;;;5004837;28;20022;-79
2023/08/30 03:13:10;;;;;;;0.45;0.40;;;;;;;;;;5007237;28;20036;-79
2023/08/30 03:15:36;;;;;;;0.28;0.28;;;;;;;;;;5004440;28;20030;-79
2023/08/30 03:18:02;;;;;;;0.50;0.50;;;;;;;;;;5005843;28;20037;-79
2023/08/30 03:20:28;;;;;;;0.40;0.38;;;;;;;;;;5007159;28;20030;-79
2023/08/30 03:22:56;;;;;;;0.32;0.32;;;;;;;;;;5008838;28;20022;-79
2023/08/30 03:25:22;;;;;;;0.45;0.45;;;;;;;;;;5007841;28;20437;-79
2023/08/30 03:27:48;;;;;;;0.52;0.52;;;;;;;;;;5006736;28;20026;-78
2023/08/30 03:30:14;;;;;;;0.30;0.30;;;;;;;;;;5004753;28;20398;-79
2023/08/30 03:32:40;;;;;;;0.40;0.40;;;;;;;;;;5004307;28;20107;-79
2023/08/30 03:35:06;;;;;;;0.70;0.50;;;;;;;;;;5003879;28;20022;-79
2023/08/30 03:37:32;;;;;;;0.40;0.40;;;;;;;;;;5008825;28;20080;-79
2023/08/30 03:39:58;;;;;;;0.50;0.50;;;;;;;;;;5008277;28;20021;-79
2023/08/30 03:42:24;;;;;;;0.60;0.50;;;;;;;;;;5007915;28;20022;-78
2023/08/30 03:44:50;;;;;;;0.85;0.57;;;;;;;;;;5008273;28;20552;-79
2023/08/30 03:47:16;;;;;;;0.60;0.35;;;;;;;;;;5008275;28;20022;-79
2023/08/30 03:49:44;;;;;;;0.28;0.28;;;;;;;;;;5009072;28;20041;-79
2023/08/30 03:52:10;;;;;;;0.30;0.30;;;;;;;;;;5004445;28;20087;-79
2023/08/30 03:54:36;;;;;;;0.45;0.45;;;;;;;;;;4997449;28;20499;-79
2023/08/30 03:57:02;;;;;;;0.50;0.30;;;;;;;;;;5005642;28;20041;-78
2023/08/30 03:59:28;;;;;;;0.30;0.30;;;;;;;;;;5007033;28;20494;-78
2023/08/30 04:01:54;;;;;;;2.53;0.50;;;;;;;;;;5007650;28;20065;-79
2023/08/30 04:04:20;;;;;;;0.30;0.30;;;;;;;;;;5009314;28;20101;-78
2023/08/30 04:06:46;;;;;;;0.43;0.43;;;;;;;;;;5006292;28;20026;-78
2023/08/30 04:09:12;;;;;;;0.30;0.30;;;;;;;;;;5005283;28;20034;-78
2023/08/30 04:11:38;;;;;;;0.47;0.47;;;;;;;;;;5008424;28;20033;-79
2023/08/30 04:14:04;;;;;;;0.40;0.40;;;;;;;;;;5008364;28;20037;-78
2023/08/30 04:16:30;;;;;;;0.30;0.30;;;;;;;;;;5005899;28;20034;-78
2023/08/30 04:18:57;;;;;;;0.30;0.30;;;;;;;;;;5007470;28;20096;-78
2023/08/30 04:21:23;;;;;;;0.25;0.25;;;;;;;;;;5009245;28;20433;-79
2023/08/30 04:23:49;;;;;;;0.30;0.30;;;;;;;;;;5006974;28;20072;-79
2023/08/30 04:26:15;;;;;;;0.35;0.35;;;;;;;;;;5006460;28;20486;-79
2023/08/30 04:28:41;;;;;;;1.05;0.40;;;;;;;;;;5007198;28;20391;-79
2023/08/30 04:31:07;;;;;;;0.30;0.30;;;;;;;;;;5006285;28;20079;-79
2023/08/30 04:33:33;;;;;;;0.52;0.43;;;;;;;;;;5006386;28;20482;-79
2023/08/30 04:36:00;;;;;;;0.47;0.40;;;;;;;;;;4998831;28;20380;-80
2023/08/30 04:38:26;;;;;;;0.57;0.45;;;;;;;;;;5004522;28;20033;-80
2023/08/30 04:40:58;;;;;;;0.52;0.52;;;;;;;;;;5005487;28;20034;-79
2023/08/30 04:43:24;;;;;;;0.43;0.40;;;;;;;;;;5002948;28;20082;-79
2023/08/30 04:45:50;;;;;;;0.40;0.40;;;;;;;;;;4993777;28;20026;-79
2023/08/30 04:48:16;;;;;;;0.35;0.32;;;;;;;;;;4998395;28;20030;-79
2023/08/30 04:50:42;;;;;;;0.40;0.40;;;;;;;;;;5004521;28;20022;-79
2023/08/30 04:53:08;;;;;;;0.57;0.43;;;;;;;;;;5005450;28;20104;-78
2023/08/30 04:55:34;;;;;;;0.35;0.32;;;;;;;;;;5008996;28;20084;-79
2023/08/30 04:58:00;;;;;;;0.50;0.43;;;;;;;;;;5006872;28;20029;-79
2023/08/30 05:00:26;;;;;;;0.40;0.40;;;;;;;;;;5008911;28;20367;-79
2023/08/30 05:02:52;;;;;;;0.17;0.17;;;;;;;;;;5009158;28;20034;-80
2023/08/30 05:05:18;;;;;;;0.50;0.43;;;;;;;;;;5007719;28;20049;-79
2023/08/30 05:07:46;;;;;;;0.10;0.10;;;;;;;;;;5001952;28;20032;-79
2023/08/30 05:10:13;;;;;;;0.50;0.50;;;;;;;;;;5008489;28;20117;-79
2023/08/30 05:12:38;;;;;;;0.55;0.50;;;;;;;;;;5007926;28;20024;-79
2023/08/30 05:15:05;;;;;;;0.30;0.30;;;;;;;;;;5005344;28;20483;-79
2023/08/30 05:17:32;;;;;;;0.40;0.40;;;;;;;;;;5007193;28;20030;-79
2023/08/30 05:19:58;;;;;;;0.32;0.30;;;;;;;;;;5005695;28;20056;-80
2023/08/30 05:22:24;;;;;;;0.52;0.52;;;;;;;;;;5010755;28;20038;-80
2023/08/30 05:24:50;;;;;;;0.88;0.77;;;;;;;;;;5011501;28;20053;-80
2023/08/30 05:27:18;;;;;;;1.27;0.50;;;;;;;;;;5010626;28;20026;-80
2023/08/30 05:29:43;;;;;;;0.50;0.50;;;;;;;;;;5007413;28;20029;-78
2023/08/30 05:32:10;;;;;;;0.88;0.52;;;;;;;;;;5011941;28;20033;-92
2023/08/30 05:34:36;;;;;;;0.30;0.30;;;;;;;;;;5010164;28;20507;-87
2023/08/30 05:37:02;;;;;;;1.67;0.82;;;;;;;;;;4998747;28;20031;-87
2023/08/30 05:39:28;;;;;;;0.98;0.50;;;;;;;;;;5008433;28;20109;-88
2023/08/30 05:41:54;;;;;;;0.40;0.40;;;;;;;;;;5011629;28;20030;-77
2023/08/30 05:44:20;;;;;;;1.42;0.40;;;;;;;;;;5011601;28;20029;-87
2023/08/30 05:46:46;;;;;;;0.50;0.40;;;;;;;;;;5008108;28;20029;-84
2023/08/30 05:49:15;;;;;;;0.20;0.20;;;;;;;;;;5011234;28;20072;-91
2023/08/30 05:51:41;;;;;;;0.60;0.60;;;;;;;;;;5012860;28;20084;-90
2023/08/30 05:54:07;;;;;;;2.85;0.50;;;;;;;;;;5012863;28;20033;-88
2023/08/30 05:56:33;;;;;;;0.82;0.70;;;;;;;;;;5013114;28;20026;-89
2023/08/30 05:58:59;;;;;;;0.40;0.40;;;;;;;;;;5011688;28;20549;-93
2023/08/30 06:01:25;;;;;;;0.32;0.32;;;;;;;;;;5012901;28;20052;-91
2023/08/30 06:03:51;;;;;;;0.30;0.20;;;;;;;;;;5012418;28;20030;-88
2023/08/30 06:06:17;;;;;;;0.52;0.52;;;;;;;;;;5010914;28;20045;-87
2023/08/30 06:08:43;;;;;;;0.52;0.50;;;;;;;;;;5013808;28;20030;-90
2023/08/30 06:11:09;;;;;;;0.43;0.40;;;;;;;;;;5008672;28;20030;-90
2023/08/30 06:13:35;;;;;;;0.50;0.50;;;;;;;;;;5005901;28;20121;-89
2023/08/30 06:16:02;;;;;;;0.57;0.57;;;;;;;;;;5007349;28;20087;-88
2023/08/30 06:18:30;;;;;;;0.52;0.40;;;;;;;;;;5008612;28;20033;-83
2023/08/30 06:20:56;;;;;;;0.38;0.38;;;;;;;;;;5009989;28;20030;-86
2023/08/30 06:23:22;;;;;;;0.32;0.32;;;;;;;;;;5003808;28;20034;-90
2023/08/30 06:25:58;;;;;;;0.95;0.50;;;;;;;;;;5005942;28;20034;-78
2023/08/30 06:28:24;;;;;;;0.90;0.40;;;;;;;;;;5003243;28;20022;-78
2023/08/30 06:30:50;;;;;;;0.32;0.32;;;;;;;;;;5013621;28;20031;-92
2023/08/30 06:33:17;;;;;;;6.45;0.68;;;;;;;;;;5007304;28;20030;-92
2023/08/30 06:35:43;;;;;;;0.45;0.45;;;;;;;;;;5005072;28;20091;-78
2023/08/30 06:38:09;;;;;;;1.00;0.50;;;;;;;;;;5007670;28;20117;-79
2023/08/30 06:40:35;;;;;;;3.13;0.77;;;;;;;;;;5003676;28;20101;-80
2023/08/30 06:43:00;;;;;;;1.35;0.88;;;;;;;;;;5007053;28;20029;-81
2023/08/30 06:45:36;;;;;;;0.60;0.60;;;;;;;;;;5005957;28;20030;-81
2023/08/30 06:48:02;;;;;;;0.88;0.47;;;;;;;;;;5002004;28;20034;-82
2023/08/30 06:50:28;;;;;;;0.98;0.60;;;;;;;;;;5010973;28;20033;-82
2023/08/30 06:52:54;;;;;;;2.17;0.50;;;;;;;;;;5010429;28;20033;-82
2023/08/30 06:55:19;;;;;;;0.43;0.43;;;;;;;;;;5009280;28;20038;-81
2023/08/30 06:57:48;;;;;;;0.60;0.57;;;;;;;;;;4997935;28;20041;-81
2023/08/30 07:00:14;;;;;;;1.02;0.40;;;;;;;;;;4999632;28;20398;-81
2023/08/30 07:02:44;;;;;;;0.50;0.50;;;;;;;;;;5008219;28;20052;-81
2023/08/30 07:05:10;;;;;;;0.75;0.70;;;;;;;;;;5009096;28;20592;-81
2023/08/30 07:07:36;;;;;;;0.52;0.52;;;;;;;;;;5010180;28;20042;-81
2023/08/30 07:10:02;;;;;;;0.68;0.65;;;;;;;;;;5008872;28;20028;-81
2023/08/30 07:12:28;;;;;;;0.43;0.43;;;;;;;;;;5004966;28;20040;-81
2023/08/30 07:14:54;;;;;;;0.40;0.40;;;;;;;;;;5000660;28;20026;-81
2023/08/30 07:17:20;;;;;;;0.85;0.60;;;;;;;;;;5001538;28;20034;-82
2023/08/30 07:19:46;;;;;;;0.40;0.40;;;;;;;;;;5003563;28;20032;-85
2023/08/30 07:22:12;;;;;;;0.40;0.40;;;;;;;;;;5009845;28;20061;-88
2023/08/30 07:24:38;;;;;;;1.33;0.55;;;;;;;;;;5009304;28;20041;-92
2023/08/30 07:27:05;;;;;;;0.52;0.47;;;;;;;;;;5009084;28;20032;-86
2023/08/30 07:29:31;;;;;;;0.40;0.40;;;;;;;;;;5009533;28;20048;-87
2023/08/30 07:31:58;;;;;;;0.73;0.73;;;;;;;;;;5008810;28;20095;-89
2023/08/30 07:34:24;;;;;;;2.38;0.47;;;;;;;;;;5001020;28;20056;-84
2023/08/30 07:36:50;;;;;;;1.58;0.52;;;;;;;;;;5009595;28;20045;-87
2023/08/30 07:39:19;;;;;;;0.73;0.70;;;;;;;;;;5008362;28;20096;-91
2023/08/30 07:41:45;;;;;;;2.85;1.63;;;;;;;;;;5004562;28;20348;-87
2023/08/30 07:44:11;;;;;;;0.50;0.50;;;;;;;;;;5009033;28;20033;-88
2023/08/30 07:46:37;;;;;;;0.50;0.50;;;;;;;;;;5004587;28;20030;-87
2023/08/30 07:49:03;;;;;;;1.85;0.85;;;;;;;;;;5004848;28;20029;-86
2023/08/30 07:51:29;;;;;;;0.50;0.50;;;;;;;;;;5005578;28;20125;-83
2023/08/30 07:53:55;;;;;;;0.47;0.47;;;;;;;;;;5007813;28;20398;-81
2023/08/30 07:56:21;;;;;;;0.43;0.43;;;;;;;;;;5007845;28;20062;-79
2023/08/30 07:58:47;;;;;;;0.60;0.60;;;;;;;;;;5009684;28;20038;-87
2023/08/30 08:01:13;;;;;;;0.40;0.40;;;;;;;;;;5006744;28;20076;-87
2023/08/30 08:03:41;;;;;;;0.20;0.20;;;;;;;;;;5006450;28;20034;-87
2023/08/30 08:06:07;;;;;;;0.75;0.50;;;;;;;;;;5005976;28;20060;-86
2023/08/30 08:08:33;;;;;;;0.90;0.52;;;;;;;;;;5009276;28;20038;-87
2023/08/30 08:11:03;;;;;;;0.73;0.73;;;;;;;;;;5007555;28;20105;-86
2023/08/30 08:13:29;;;;;;;1.07;0.90;;;;;;;;;;5008616;28;20030;-86
2023/08/30 08:15:58;;;;;;;1.17;0.82;;;;;;;;;;5008254;28;20351;-87
2023/08/30 08:18:24;;;;;;;0.40;0.40;;;;;;;;;;5009186;28;20037;-87
2023/08/30 08:20:50;;;;;;;0.60;0.60;;;;;;;;;;5009086;28;20497;-86
2023/08/30 08:23:16;;;;;;;1.60;0.60;;;;;;;;;;5006320;28;20029;-92
2023/08/30 08:25:42;;;;;;;0.40;0.40;;;;;;;;;;5004706;28;20061;-94
2023/08/30 08:28:08;;;;;;;0.30;0.30;;;;;;;;;;5009231;28;20556;-95
2023/08/30 08:30:35;;;;;;;6.18;1.20;;;;;;;;;;5004080;28;20038;-93
2023/08/30 08:33:01;;;;;;;1.20;0.60;;;;;;;;;;5011011;28;20026;-92
2023/08/30 08:35:27;;;;;;;0.30;0.30;;;;;;;;;;5010584;28;20036;-95
2023/08/30 08:37:53;;;;;;;0.47;0.43;;;;;;;;;;5009921;28;20364;-91
2023/08/30 08:40:19;;;;;;;0.40;0.40;;;;;;;;;;5007804;28;20053;-92
2023/08/30 08:42:46;;;;;;;0.60;0.60;;;;;;;;;;5008908;28;20069;-92
2023/08/30 08:45:13;;;;;;;0.50;0.50;;;;;;;;;;5007623;28;20021;-93
2023/08/30 08:47:41;;;;;;;4.78;0.40;;;;;;;;;;5004582;28;20030;-94
2023/08/30 08:50:09;;;;;;;1.02;0.60;;;;;;;;;;5000710;28;20054;-93
2023/08/30 08:52:34;;;;;;;0.50;0.50;;;;;;;;;;5003215;28;20033;-95
2023/08/30 08:55:01;;;;;;;0.70;0.60;;;;;;;;;;5011999;28;20026;-93
2023/08/30 08:57:27;;;;;;;0.50;0.50;;;;;;;;;;5012079;28;20026;-86
2023/08/30 08:59:55;;;;;;;0.50;0.50;;;;;;;;;;5005761;28;20026;-92
2023/08/30 09:02:21;;;;;;;0.82;0.70;;;;;;;;;;5009548;28;20077;-93
2023/08/30 09:04:47;;;;;;;1.00;0.70;;;;;;;;;;5007130;28;20057;-94
2023/08/30 09:07:14;;;;;;;2.88;0.77;;;;;;;;;;5013310;28;20038;-93
2023/08/30 09:09:40;;;;;;;1.55;0.60;;;;;;;;;;5014834;28;20022;-94
2023/08/30 09:12:06;;;;;;;1.15;0.70;;;;;;;;;;5010035;28;20056;-94
2023/08/30 09:14:32;;;;;;;0.45;0.45;;;;;;;;;;5002345;28;20108;-94
2023/08/30 09:17:00;;;;;;;0.52;0.50;;;;;;;;;;5004707;28;20030;-93
2023/08/30 09:19:26;;;;;;;0.63;0.57;;;;;;;;;;5001635;28;20045;-94
2023/08/30 09:21:55;;;;;;;0.60;0.60;;;;;;;;;;5011605;28;20029;-94
2023/08/30 09:24:22;;;;;;;1.00;0.60;;;;;;;;;;5003141;28;20038;-93
2023/08/30 09:26:52;;;;;;;0.40;0.40;;;;;;;;;;5008254;28;20026;-90
2023/08/30 09:29:19;;;;;;;0.50;0.50;;;;;;;;;;5011885;28;20072;-93
2023/08/30 09:31:45;;;;;;;0.50;0.50;;;;;;;;;;5002121;28;20041;-94
2023/08/30 09:34:11;;;;;;;0.68;0.63;;;;;;;;;;5009186;28;20497;-94
2023/08/30 09:36:38;;;;;;;0.60;0.60;;;;;;;;;;5000992;28;20530;-94
2023/08/30 09:39:05;;;;;;;0.40;0.40;;;;;;;;;;5008381;28;20486;-78
2023/08/30 09:41:58;;;;;;;0.95;0.70;;;;;;;;;;5010241;28;20025;-92
2023/08/30 09:44:24;;;;;;;1.08;0.73;;;;;;;;;;5004115;28;20109;-91
2023/08/30 09:46:54;;;;;;;1.15;0.60;;;;;;;;;;5012841;28;20022;-91
2023/08/30 09:49:21;;;;;;;2.08;0.70;;;;;;;;;;5008490;28;20430;-93
2023/08/30 09:51:47;;;;;;;0.60;0.60;;;;;;;;;;5014478;28;20022;-93
2023/08/30 09:54:18;;;;;;;0.55;0.55;;;;;;;;;;5001041;28;20423;-92
2023/08/30 09:56:45;;;;;;;0.47;0.47;;;;;;;;;;5007581;28;20100;-92
2023/08/30 09:59:12;;;;;;;0.40;0.40;;;;;;;;;;5011350;28;20085;-91
2023/08/30 10:01:38;;;;;;;2.13;0.55;;;;;;;;;;5005802;28;20052;-92
2023/08/30 10:04:04;;;;;;;0.73;0.52;;;;;;;;;;4998500;28;20038;-92
2023/08/30 10:06:31;;;;;;;1.58;0.85;;;;;;;;;;4996917;28;20471;-92
2023/08/30 10:08:57;;;;;;;0.85;0.80;;;;;;;;;;5012973;28;20032;-93
2023/08/30 10:11:24;;;;;;;0.50;0.50;;;;;;;;;;5012179;28;20018;-94
2023/08/30 10:13:52;;;;;;;1.33;0.70;;;;;;;;;;5012815;28;20105;-92
2023/08/30 10:16:20;;;;;;;0.82;0.63;;;;;;;;;;5011395;28;20502;-93
2023/08/30 10:18:50;;;;;;;0.40;0.40;;;;;;;;;;5005080;28;20062;-92
2023/08/30 10:21:19;;;;;;;0.95;0.40;;;;;;;;;;5011111;28;20022;-94
2023/08/30 10:23:46;;;;;;;0.47;0.47;;;;;;;;;;5012880;28;20057;-93
2023/08/30 10:26:13;;;;;;;0.68;0.68;;;;;;;;;;5012959;28;20109;-92
2023/08/30 10:28:40;;;;;;;0.47;0.47;;;;;;;;;;5006113;28;20038;-92
2023/08/30 10:31:06;;;;;;;0.30;0.30;;;;;;;;;;4998580;28;20105;-92
2023/08/30 10:33:32;;;;;;;1.25;0.68;;;;;;;;;;5008699;28;20031;-93
2023/08/30 10:36:07;;;;;;;3.63;0.90;;;;;;;;;;5006151;28;20045;-93
2023/08/30 10:38:38;;;;;;;1.02;0.70;;;;;;;;;;5013424;28;20026;-94
2023/08/30 10:41:07;;;;;;;0.80;0.80;;;;;;;;;;5009260;28;20022;-94
2023/08/30 10:43:35;;;;;;;0.57;0.57;;;;;;;;;;5009639;28;20046;-93
2023/08/30 10:46:06;;;;;;;0.63;0.63;;;;;;;;;;5008634;28;20151;-94
2023/08/30 10:48:32;;;;;;;;;;;;;;;;;;5012057;28;20025;-88
2023/08/30 10:50:58;;;;;;;2.20;0.63;;;;;;;;;;5008137;28;19909;-94
2023/08/30 10:53:29;;;;;;;3.03;0.70;;;;;;;;;;5004253;28;20029;-93
2023/08/30 11:01:10;;;;;;;0.50;0.50;;;;;;;;;;4233377;23;20081;-91
2023/08/30 11:03:36;;;;;;;3.80;0.70;;;;;;;;;;5016374;28;20030;-91
2023/08/30 11:06:03;;;;;;;1.95;0.90;;;;;;;;;;5021258;28;20060;-93
2023/08/30 11:08:29;;;;;;;0.85;0.80;;;;;;;;;;5019969;28;20101;-92
2023/08/30 11:11:05;;;;;;;1.00;0.60;;;;;;;;;;5017722;28;20418;-91
2023/08/30 11:13:32;;;;;;;1.17;0.55;;;;;;;;;;5014272;28;20045;-91
2023/08/30 11:16:06;;;;;;;0.40;0.40;;;;;;;;;;5015171;28;20163;-92
2023/08/30 11:18:38;;;;;;;1.13;0.75;;;;;;;;;;5013374;28;20514;-91
2023/08/30 11:21:11;;;;;;;1.95;0.80;;;;;;;;;;5028968;28;20030;-92
2023/08/30 11:23:37;;;;;;;0.82;0.80;;;;;;;;;;5023828;28;20037;-92
2023/08/30 11:26:03;;;;;;;0.98;0.80;;;;;;;;;;5018303;28;20026;-79
2023/08/30 11:28:29;;;;;;;1.42;0.70;;;;;;;;;;5020964;28;20025;-82
2023/08/30 11:30:56;;;;;;;1.30;0.70;;;;;;;;;;5020886;28;20021;-78
2023/08/30 11:33:22;;;;;;;0.85;0.63;;;;;;;;;;5019307;28;20227;-77
2023/08/30 11:35:49;;;;;;;0.80;0.70;;;;;;;;;;5024601;28;20116;-79
2023/08/30 11:38:15;;;;;;;1.17;1.02;;;;;;;;;;5019550;28;20034;-79
2023/08/30 11:40:41;;;;;;;0.88;0.73;;;;;;;;;;5017771;28;20025;-79
2023/08/30 11:43:08;;;;;;;1.52;1.10;;;;;;;;;;5009492;28;20087;-78
2023/08/30 11:45:34;;;;;;;2.47;0.90;;;;;;;;;;5013040;28;20060;-90
2023/08/30 11:48:01;;;;;;;1.90;0.85;;;;;;;;;;5015190;28;20028;-92
2023/08/30 11:50:27;;;;;;;1.88;1.05;;;;;;;;;;5018081;28;20722;-92
2023/08/30 11:53:00;;;;;;;0.95;0.60;;;;;;;;;;5017796;28;20121;-92
2023/08/30 11:55:26;;;;;;;1.02;0.82;;;;;;;;;;5022930;28;20509;-90
2023/08/30 11:57:52;;;;;;;2.15;0.90;;;;;;;;;;5015714;28;20029;-90
2023/08/30 12:00:19;;;;;;;1.65;0.75;;;;;;;;;;5024761;28;20038;-90
2023/08/30 12:02:48;;;;;;;0.90;0.90;;;;;;;;;;5025733;28;20096;-91
2023/08/30 12:05:15;;;;;;;0.70;0.65;;;;;;;;;;5022268;28;20049;-85
2023/08/30 12:07:41;;;;;;;1.77;0.98;;;;;;;;;;5017666;28;20498;-86
2023/08/30 12:10:08;;;;;;;1.10;0.93;;;;;;;;;;5014916;28;20033;-87
2023/08/30 12:12:36;;;;;;;0.63;0.63;;;;;;;;;;5018426;28;20037;-87
2023/08/30 12:15:02;;;;;;;0.50;0.50;;;;;;;;;;5019479;28;20021;-86
2023/08/30 12:17:28;;;;;;;0.88;0.80;;;;;;;;;;5019690;28;20033;-87
2023/08/30 12:19:57;;;;;;;0.80;0.80;;;;;;;;;;5021769;28;20025;-89
2023/08/30 12:22:23;;;;;;;0.60;0.60;;;;;;;;;;5018665;28;20036;-87
2023/08/30 12:24:49;;;;;;;1.15;0.70;;;;;;;;;;5019696;28;20040;-86
2023/08/30 12:27:15;;;;;;;1.20;0.82;;;;;;;;;;5024585;28;20041;-87
2023/08/30 12:29:41;;;;;;;2.55;0.60;;;;;;;;;;5019421;28;20045;-87
2023/08/30 12:32:08;;;;;;;1.08;0.98;;;;;;;;;;5018347;28;20030;-86
2023/08/30 12:34:34;;;;;;;3.80;0.80;;;;;;;;;;5016743;28;20087;-88
2023/08/30 12:37:01;;;;;;;0.68;0.60;;;;;;;;;;5017078;28;20030;-87
2023/08/30 12:39:28;;;;;;;0.70;0.70;;;;;;;;;;5023219;28;20548;-87
2023/08/30 12:41:54;;;;;;;1.02;0.90;;;;;;;;;;5019559;28;20417;-87
2023/08/30 12:44:20;;;;;;;0.80;0.70;;;;;;;;;;5018499;28;20478;-87
2023/08/30 12:46:46;;;;;;;0.70;0.70;;;;;;;;;;5023011;28;20037;-87
2023/08/30 12:49:11;;;;;;;1.13;0.88;;;;;;;;;;5020691;28;20025;-87
2023/08/30 12:51:37;;;;;;;1.05;0.70;;;;;;;;;;5022714;28;20088;-86
2023/08/30 12:54:03;;;;;;;0.50;0.50;;;;;;;;;;5025809;28;20402;-87
2023/08/30 12:56:29;;;;;;;0.90;0.70;;;;;;;;;;5018538;28;20033;-85
2023/08/30 12:58:55;;;;;;;0.80;0.77;;;;;;;;;;5023464;28;20032;-85
2023/08/30 13:01:22;;;;;;;0.93;0.75;;;;;;;;;;5020113;28;20041;-85
2023/08/30 13:03:48;;;;;;;0.70;0.50;;;;;;;;;;5023150;28;20034;-85
2023/08/30 13:06:14;;;;;;;1.08;0.63;;;;;;;;;;5020045;28;20433;-86
2023/08/30 13:08:40;;;;;;;1.17;0.68;;;;;;;;;;5013003;28;20605;-85
2023/08/30 13:11:06;;;;;;;0.70;0.70;;;;;;;;;;5016086;28;20378;-86
2023/08/30 13:13:32;;;;;;;0.82;0.68;;;;;;;;;;5020286;28;20363;-85
2023/08/30 13:15:58;;;;;;;0.63;0.60;;;;;;;;;;5023408;28;20385;-86
2023/08/30 13:18:24;;;;;;;0.60;0.50;;;;;;;;;;5017753;28;20762;-84
2023/08/30 13:20:50;;;;;;;0.68;0.68;;;;;;;;;;5017371;28;20037;-86
2023/08/30 13:23:16;;;;;;;0.70;0.70;;;;;;;;;;5020570;28;20025;-89
2023/08/30 13:25:51;;;;;;;0.60;0.60;;;;;;;;;;5021282;28;20025;-91
2023/08/30 13:28:17;;;;;;;0.80;0.65;;;;;;;;;;5014900;28;20173;-90
2023/08/30 13:30:46;;;;;;;0.70;0.70;;;;;;;;;;5017970;28;20117;-87
2023/08/30 13:33:12;;;;;;;0.57;0.40;;;;;;;;;;5022880;28;20025;-90
2023/08/30 13:35:41;;;;;;;0.95;0.85;;;;;;;;;;5022771;28;20845;-88
2023/08/30 13:38:07;;;;;;;0.77;0.77;;;;;;;;;;5018068;28;20060;-81
2023/08/30 13:40:33;;;;;;;0.70;0.70;;;;;;;;;;5019586;28;20025;-87
2023/08/30 13:43:03;;;;;;;3.20;0.68;;;;;;;;;;5023773;28;20489;-85
2023/08/30 13:45:29;;;;;;;0.80;0.80;;;;;;;;;;5026580;28;20037;-83
2023/08/30 13:47:55;;;;;;;1.27;0.50;;;;;;;;;;5019620;28;20032;-79
2023/08/30 13:50:21;;;;;;;0.70;0.70;;;;;;;;;;5023599;28;20022;-80
2023/08/30 13:52:47;;;;;;;1.13;0.70;;;;;;;;;;5018014;28;20100;-79
2023/08/30 13:55:13;;;;;;;0.50;0.50;;;;;;;;;;5022503;28;20544;-82
2023/08/30 13:57:39;;;;;;;0.55;0.55;;;;;;;;;;5022236;28;20490;-85
2023/08/30 14:00:12;;;;;;;0.50;0.50;;;;;;;;;;5023378;28;20474;-81
2023/08/30 14:02:39;;;;;;;0.90;0.80;;;;;;;;;;5018080;28;20068;-83
2023/08/30 14:05:08;;;;;;;1.05;0.60;;;;;;;;;;5017596;28;20025;-88
2023/08/30 14:07:34;;;;;;;0.60;0.60;;;;;;;;;;5021025;28;20603;-88
2023/08/30 14:10:00;;;;;;;0.60;0.60;;;;;;;;;;5021918;28;20087;-89
2023/08/30 14:12:26;;;;;;;0.60;0.60;;;;;;;;;;5021149;28;20018;-85
2023/08/30 14:14:53;;;;;;;3.33;0.68;;;;;;;;;;5022711;28;20040;-91
2023/08/30 14:17:19;;;;;;;1.45;0.90;;;;;;;;;;5018995;28;20029;-92
2023/08/30 14:19:44;;;;;;;1.02;0.60;;;;;;;;;;5028424;28;20108;-90
2023/08/30 14:22:10;;;;;;;0.77;0.70;;;;;;;;;;5029321;28;20034;-91
2023/08/30 14:24:36;;;;;;;0.93;0.80;;;;;;;;;;5013629;28;20049;-83
2023/08/30 14:27:05;;;;;;;0.50;0.50;;;;;;;;;;5024964;28;20068;-86
2023/08/30 14:29:31;;;;;;;0.88;0.57;;;;;;;;;;5019862;28;20025;-86
2023/08/30 14:32:23;;;;;;;0.82;0.82;;;;;;;;;;5023559;28;20036;-84
2023/08/30 14:34:52;;;;;;;0.63;0.60;;;;;;;;;;5017347;28;20061;-92
2023/08/30 14:37:18;;;;;;;3.03;0.60;;;;;;;;;;5022881;28;20039;-90
2023/08/30 14:39:47;;;;;;;0.73;0.50;;;;;;;;;;5022069;28;20033;-86
2023/08/30 14:42:13;;;;;;;0.80;0.60;;;;;;;;;;5024207;28;20033;-87
2023/08/30 14:44:39;;;;;;;0.85;0.73;;;;;;;;;;5017620;28;20032;-86
2023/08/30 14:47:11;;;;;;;0.57;0.57;;;;;;;;;;5021357;28;20033;-85